createdAt,value
2019-05-29T00:01:24.511Z,9.00
2019-05-29T00:03:55.095Z,8.90
2019-05-29T00:06:25.475Z,8.85
2019-05-29T00:08:55.939Z,8.93
2019-05-29T00:13:54.095Z,8.84
2019-05-29T00:16:26.265Z,8.72
2019-05-29T00:18:58.344Z,8.53
2019-05-29T00:21:47.928Z,8.38
2019-05-29T00:24:21.053Z,8.43
2019-05-29T00:26:51.449Z,8.45
2019-05-29T00:29:22.053Z,8.26
2019-05-29T00:31:53.744Z,8.36
2019-05-29T00:34:24.378Z,8.28
2019-05-29T00:36:54.643Z,8.21
2019-05-29T00:39:27.172Z,8.34
2019-05-29T00:41:57.628Z,8.20
2019-05-29T00:44:34.314Z,8.23
2019-05-29T00:47:02.008Z,8.25
2019-05-29T00:49:38.285Z,8.00
2019-05-29T00:52:08.633Z,8.07
2019-05-29T00:54:38.931Z,8.00
2019-05-29T00:57:10.796Z,8.10
2019-05-29T00:59:43.068Z,8.24
2019-05-29T01:02:13.801Z,8.14
2019-05-29T01:04:44.259Z,8.06
2019-05-29T01:07:16.289Z,7.91
2019-05-29T01:09:46.646Z,8.09
2019-05-29T01:12:19.172Z,8.12
2019-05-29T01:14:50.744Z,8.15
2019-05-29T01:17:21.886Z,8.13
2019-05-29T01:19:52.733Z,8.03
2019-05-29T01:22:24.647Z,7.99
2019-05-29T01:24:56.413Z,8.12
2019-05-29T01:27:26.763Z,8.12
2019-05-29T01:29:58.812Z,8.14
2019-05-29T01:32:33.223Z,8.18
2019-05-29T01:35:03.611Z,8.23
2019-05-29T01:37:35.259Z,8.08
2019-05-29T01:40:19.161Z,8.04
2019-05-29T01:42:38.496Z,7.98
2019-05-29T01:45:09.101Z,7.96
2019-05-29T01:47:39.436Z,7.97
2019-05-29T01:50:09.865Z,7.90
2019-05-29T01:52:42.744Z,7.88
2019-05-29T01:55:21.744Z,7.90
2019-05-29T01:57:52.070Z,7.70
2019-05-29T02:00:24.154Z,7.71
2019-05-29T02:02:56.225Z,7.75
2019-05-29T02:05:28.173Z,7.64
2019-05-29T02:07:59.680Z,7.66
2019-05-29T02:10:30.662Z,7.69
2019-05-29T02:13:01.285Z,7.72
2019-05-29T02:15:33.797Z,7.54
2019-05-29T02:18:05.375Z,7.46
2019-05-29T02:20:35.639Z,7.62
2019-05-29T02:23:05.941Z,7.61
2019-05-29T02:25:36.269Z,7.50
2019-05-29T02:28:06.532Z,7.40
2019-05-29T02:30:37.217Z,7.41
2019-05-29T02:33:10.550Z,7.40
2019-05-29T02:35:43.593Z,7.44
2019-05-29T02:38:18.285Z,7.53
2019-05-29T02:40:48.600Z,7.49
2019-05-29T02:43:21.322Z,7.43
2019-05-29T02:45:55.226Z,7.38
2019-05-29T02:48:27.524Z,7.41
2019-05-29T02:51:00.006Z,7.43
2019-05-29T02:53:30.978Z,7.48
2019-05-29T02:56:03.527Z,7.50
2019-05-29T02:58:33.959Z,7.52
2019-05-29T03:01:04.512Z,7.50
2019-05-29T03:03:39.904Z,7.55
2019-05-29T03:06:13.206Z,7.43
2019-05-29T03:08:43.886Z,7.58
2019-05-29T03:11:15.057Z,7.50
2019-05-29T03:13:45.974Z,7.48
2019-05-29T03:16:16.568Z,7.57
2019-05-29T03:18:46.877Z,7.54
2019-05-29T03:21:18.471Z,7.60
2019-05-29T03:23:50.531Z,7.61
2019-05-29T03:26:24.613Z,7.61
2019-05-29T03:28:53.220Z,7.66
2019-05-29T03:31:23.514Z,7.62
2019-05-29T03:33:54.518Z,7.69
2019-05-29T03:36:28.407Z,7.67
2019-05-29T03:38:57.779Z,7.74
2019-05-29T03:41:32.760Z,7.85
2019-05-29T03:44:09.870Z,7.97
2019-05-29T03:46:45.238Z,8.02
2019-05-29T03:49:11.851Z,8.07
2019-05-29T03:51:42.183Z,8.11
2019-05-29T03:54:13.553Z,8.21
2019-05-29T03:56:43.859Z,8.26
2019-05-29T03:59:16.758Z,8.32
2019-05-29T04:01:47.052Z,8.32
2019-05-29T04:04:17.360Z,8.42
2019-05-29T04:06:47.764Z,8.55
2019-05-29T04:09:18.052Z,8.67
2019-05-29T04:11:48.460Z,8.73
2019-05-29T04:14:18.801Z,8.79
2019-05-29T04:16:59.518Z,8.89
2019-05-29T04:19:27.667Z,8.93
2019-05-29T04:22:03.755Z,9.03
2019-05-29T04:24:41.156Z,9.09
2019-05-29T04:27:13.458Z,9.19
2019-05-29T04:29:44.970Z,9.20
2019-05-29T04:32:15.404Z,9.37
2019-05-29T04:34:52.708Z,9.45
2019-05-29T04:37:23.869Z,9.39
2019-05-29T04:39:54.465Z,9.69
2019-05-29T04:42:26.170Z,9.68
2019-05-29T04:44:58.883Z,9.65
2019-05-29T04:47:30.731Z,9.82
2019-05-29T04:50:02.958Z,9.77
2019-05-29T04:52:39.841Z,9.80
2019-05-29T04:55:10.287Z,9.86
2019-05-29T04:57:40.576Z,9.90
2019-05-29T05:00:13.001Z,9.96
2019-05-29T05:02:43.718Z,9.84
2019-05-29T05:05:14.378Z,9.73
2019-05-29T05:07:44.693Z,9.91
2019-05-29T05:10:24.766Z,9.98
2019-05-29T05:12:56.967Z,10.13
2019-05-29T05:15:29.587Z,10.15
2019-05-29T05:18:00.426Z,10.11
2019-05-29T05:20:31.873Z,10.24
2019-05-29T05:23:02.351Z,10.47
2019-05-29T05:25:34.687Z,10.57
2019-05-29T05:28:12.288Z,10.70
2019-05-29T05:30:44.693Z,10.89
2019-05-29T05:33:16.667Z,10.72
2019-05-29T05:35:46.966Z,10.94
2019-05-29T05:38:17.275Z,11.18
2019-05-29T05:40:47.858Z,11.23
2019-05-29T05:43:24.194Z,11.13
2019-05-29T05:45:52.917Z,11.18
2019-05-29T05:48:26.700Z,11.13
2019-05-29T05:50:59.630Z,10.91
2019-05-29T05:53:31.237Z,10.95
2019-05-29T05:56:01.996Z,11.14
2019-05-29T05:58:35.696Z,11.20
2019-05-29T06:01:10.345Z,11.67
2019-05-29T06:03:43.212Z,11.99
2019-05-29T06:06:13.513Z,12.06
2019-05-29T06:08:45.192Z,12.13
2019-05-29T06:11:15.514Z,11.94
2019-05-29T06:13:45.855Z,12.02
2019-05-29T06:16:16.170Z,11.98
2019-05-29T06:18:46.463Z,12.31
2019-05-29T06:21:16.745Z,13.03
2019-05-29T06:23:47.038Z,13.67
2019-05-29T06:26:17.752Z,13.55
2019-05-29T06:28:48.490Z,14.18
2019-05-29T06:31:18.925Z,14.32
2019-05-29T06:33:49.227Z,14.93
2019-05-29T06:36:19.880Z,14.90
2019-05-29T06:38:50.295Z,13.99
2019-05-29T06:41:20.592Z,14.24
2019-05-29T06:43:50.895Z,14.75
2019-05-29T06:46:21.655Z,15.60
2019-05-29T06:48:59.594Z,15.00
2019-05-29T06:51:24.122Z,14.45
2019-05-29T06:53:54.416Z,14.24
2019-05-29T06:56:24.753Z,13.17
2019-05-29T06:58:57.098Z,13.18
2019-05-29T07:01:27.722Z,13.41
2019-05-29T07:04:11.349Z,14.29
2019-05-29T07:06:30.984Z,14.71
2019-05-29T07:09:01.181Z,14.74
2019-05-29T07:11:31.491Z,13.86
2019-05-29T07:14:02.265Z,13.31
2019-05-29T07:16:43.690Z,13.42
2019-05-29T07:19:24.563Z,13.66
2019-05-29T07:21:40.760Z,15.13
2019-05-29T07:24:11.251Z,15.39
2019-05-29T07:26:43.053Z,14.67
2019-05-29T07:29:14.900Z,14.96
2019-05-29T07:31:45.614Z,14.65
2019-05-29T07:34:17.934Z,14.77
2019-05-29T07:37:04.066Z,15.87
2019-05-29T07:39:34.370Z,16.35
2019-05-29T07:42:04.859Z,17.60
2019-05-29T07:44:35.199Z,18.54
2019-05-29T07:47:05.624Z,18.38
2019-05-29T07:49:39.906Z,19.07
2019-05-29T07:52:07.992Z,18.31
2019-05-29T07:54:39.995Z,17.60
2019-05-29T07:57:10.734Z,16.80
2019-05-29T07:59:41.032Z,16.03
2019-05-29T08:02:11.424Z,15.41
2019-05-29T08:04:47.194Z,15.45
2019-05-29T08:07:19.749Z,15.38
2019-05-29T08:09:50.386Z,15.66
2019-05-29T08:12:20.670Z,16.13
2019-05-29T08:14:52.320Z,16.40
2019-05-29T08:17:27.551Z,16.96
2019-05-29T08:20:06.570Z,18.02
2019-05-29T08:22:35.040Z,18.74
2019-05-29T08:25:06.134Z,19.85
2019-05-29T08:27:40.563Z,21.00
2019-05-29T08:30:11.468Z,21.70
2019-05-29T08:32:43.656Z,22.39
2019-05-29T08:35:14.129Z,22.17
2019-05-29T08:37:47.424Z,21.41
2019-05-29T08:40:17.908Z,22.01
2019-05-29T08:42:49.333Z,22.51
2019-05-29T08:45:20.267Z,21.27
2019-05-29T08:47:53.309Z,21.37
2019-05-29T08:50:25.949Z,22.35
2019-05-29T08:52:57.581Z,22.64
2019-05-29T08:55:32.883Z,22.30
2019-05-29T08:58:08.200Z,21.93
2019-05-29T09:00:38.551Z,22.34
2019-05-29T09:03:08.944Z,22.48
2019-05-29T09:05:44.555Z,21.88
2019-05-29T09:08:15.563Z,22.91
2019-05-29T09:10:53.491Z,22.35
2019-05-29T09:13:20.418Z,22.45
2019-05-29T09:15:53.615Z,23.53
2019-05-29T09:18:25.506Z,21.87
2019-05-29T09:21:03.275Z,22.40
2019-05-29T09:23:28.160Z,22.72
2019-05-29T09:26:14.179Z,22.08
2019-05-29T09:28:33.603Z,21.69
2019-05-29T09:31:04.170Z,21.83
2019-05-29T09:33:35.811Z,23.76
2019-05-29T09:36:06.125Z,23.54
2019-05-29T09:38:38.677Z,23.62
2019-05-29T09:41:09.311Z,21.68
2019-05-29T09:43:57.414Z,21.81
2019-05-29T09:46:15.225Z,22.32
2019-05-29T09:48:50.051Z,23.09
2019-05-29T09:51:22.404Z,22.08
2019-05-29T09:53:54.358Z,21.83
2019-05-29T09:56:25.600Z,21.52
2019-05-29T09:58:57.853Z,21.23
2019-05-29T10:01:32.245Z,22.45
2019-05-29T10:04:06.185Z,22.46
2019-05-29T10:06:36.333Z,21.59
2019-05-29T10:09:08.920Z,21.55
2019-05-29T10:11:44.531Z,22.07
2019-05-29T10:14:17.255Z,22.53
2019-05-29T10:16:48.978Z,23.75
2019-05-29T10:19:21.730Z,25.06
2019-05-29T10:22:00.745Z,24.30
2019-05-29T10:24:32.615Z,23.24
2019-05-29T10:27:08.899Z,23.12
2019-05-29T10:29:39.183Z,22.38
2019-05-29T10:32:09.676Z,22.46
2019-05-29T10:34:40.409Z,23.91
2019-05-29T10:37:18.085Z,26.26
2019-05-29T10:39:48.797Z,26.40
2019-05-29T10:42:22.212Z,26.66
2019-05-29T10:44:53.238Z,26.70
2019-05-29T10:47:29.267Z,27.03
2019-05-29T10:50:06.450Z,26.64
2019-05-29T10:52:36.803Z,25.90
2019-05-29T10:55:07.981Z,26.29
2019-05-29T10:57:46.998Z,25.88
2019-05-29T11:00:19.837Z,26.45
2019-05-29T11:02:53.000Z,27.08
2019-05-29T11:05:22.425Z,26.63
2019-05-29T11:07:54.023Z,25.93
2019-05-29T11:10:24.393Z,25.32
2019-05-29T11:12:55.056Z,25.19
2019-05-29T11:15:26.692Z,26.23
2019-05-29T11:17:57.376Z,24.93
2019-05-29T11:20:32.184Z,24.65
2019-05-29T11:23:02.528Z,24.43
2019-05-29T11:25:36.946Z,25.43
2019-05-29T11:28:09.904Z,25.57
2019-05-29T11:30:40.312Z,25.90
2019-05-29T11:33:12.109Z,25.63
2019-05-29T11:35:57.701Z,25.99
2019-05-29T11:38:20.050Z,25.28
2019-05-29T11:41:22.345Z,25.16
2019-05-29T11:43:29.641Z,25.77
2019-05-29T11:46:01.791Z,24.19
2019-05-29T11:48:32.327Z,22.50
2019-05-29T11:51:02.764Z,21.02
2019-05-29T11:53:33.308Z,21.51
2019-05-29T11:56:05.542Z,22.71
2019-05-29T11:58:35.907Z,24.17
2019-05-29T12:01:08.507Z,24.05
2019-05-29T12:04:05.517Z,23.23
2019-05-29T12:06:12.586Z,23.37
2019-05-29T12:08:45.778Z,23.78
2019-05-29T12:11:19.469Z,24.66
2019-05-29T12:13:49.778Z,25.10
2019-05-29T12:16:20.247Z,24.04
2019-05-29T12:18:51.543Z,24.50
2019-05-29T12:21:22.470Z,25.14
2019-05-29T12:23:54.024Z,24.43
2019-05-29T12:26:25.488Z,22.72
2019-05-29T12:29:02.036Z,23.02
2019-05-29T12:31:29.532Z,23.19
2019-05-29T12:34:16.462Z,23.62
2019-05-29T12:36:36.819Z,24.37
2019-05-29T12:39:09.144Z,24.68
2019-05-29T12:41:39.749Z,23.87
2019-05-29T12:44:11.074Z,23.84
2019-05-29T12:46:43.160Z,23.62
2019-05-29T12:49:19.551Z,23.41
2019-05-29T12:51:49.854Z,22.76
2019-05-29T12:54:20.238Z,21.91
2019-05-29T12:56:55.804Z,22.00
2019-05-29T12:59:26.246Z,23.48
2019-05-29T13:01:58.555Z,23.20
2019-05-29T13:04:28.944Z,23.86
2019-05-29T13:07:04.571Z,24.78
2019-05-29T13:09:34.806Z,25.55
2019-05-29T13:12:07.425Z,25.19
2019-05-29T13:14:37.869Z,23.58
2019-05-29T13:17:08.701Z,23.16
2019-05-29T13:19:44.790Z,22.40
2019-05-29T13:22:15.141Z,22.46
2019-05-29T13:24:45.434Z,22.91
2019-05-29T13:27:19.793Z,23.89
2019-05-29T13:29:51.584Z,24.08
2019-05-29T13:32:21.940Z,22.90
2019-05-29T13:34:55.816Z,23.36
2019-05-29T13:37:26.603Z,23.06
2019-05-29T13:39:58.524Z,23.27
2019-05-29T13:42:29.985Z,23.41
2019-05-29T13:45:06.003Z,21.09
2019-05-29T13:47:37.261Z,19.27
2019-05-29T13:50:12.112Z,20.56
2019-05-29T13:52:42.650Z,20.78
2019-05-29T13:55:17.985Z,21.19
2019-05-29T13:57:50.810Z,21.98
2019-05-29T14:00:33.803Z,22.00
2019-05-29T14:02:54.846Z,21.60
2019-05-29T14:05:26.086Z,22.32
2019-05-29T14:07:58.463Z,22.42
2019-05-29T14:10:29.238Z,22.49
2019-05-29T14:13:00.867Z,21.19
2019-05-29T14:15:32.504Z,20.67
2019-05-29T14:18:06.861Z,21.33
2019-05-29T14:20:37.747Z,22.36
2019-05-29T14:23:09.449Z,22.44
2019-05-29T14:25:40.090Z,23.17
2019-05-29T14:28:10.450Z,22.47
2019-05-29T14:30:41.048Z,22.38
2019-05-29T14:33:14.908Z,22.06
2019-05-29T14:35:44.063Z,21.83
2019-05-29T14:38:17.441Z,21.40
2019-05-29T14:40:47.965Z,21.52
2019-05-29T14:43:24.166Z,21.79
2019-05-29T14:45:54.859Z,22.20
2019-05-29T14:48:25.328Z,22.24
2019-05-29T14:50:55.631Z,21.53
2019-05-29T14:53:28.137Z,21.42
2019-05-29T14:55:58.500Z,21.45
2019-05-29T14:58:31.273Z,21.16
2019-05-29T15:01:03.114Z,21.26
2019-05-29T15:03:33.787Z,20.60
2019-05-29T15:06:05.542Z,20.75
2019-05-29T15:08:35.830Z,21.27
2019-05-29T15:11:08.308Z,21.88
2019-05-29T15:13:38.637Z,21.95
2019-05-29T15:16:09.175Z,21.73
2019-05-29T15:18:39.914Z,21.24
2019-05-29T15:21:17.917Z,21.68
2019-05-29T15:23:50.897Z,22.36
2019-05-29T15:26:21.322Z,22.16
2019-05-29T15:28:52.771Z,21.40
2019-05-29T15:31:25.292Z,21.20
2019-05-29T15:33:56.256Z,21.31
2019-05-29T15:36:26.864Z,20.19
2019-05-29T15:38:57.855Z,19.44
2019-05-29T15:41:28.303Z,19.28
2019-05-29T15:44:00.070Z,18.87
2019-05-29T15:46:30.413Z,18.62
2019-05-29T15:49:00.765Z,18.76
2019-05-29T15:51:36.272Z,18.63
2019-05-29T15:54:07.164Z,18.71
2019-05-29T15:56:37.631Z,18.13
2019-05-29T15:59:09.875Z,18.06
2019-05-29T16:01:40.385Z,17.75
2019-05-29T16:04:11.664Z,18.06
2019-05-29T16:06:42.198Z,18.15
2019-05-29T16:09:14.203Z,18.24
2019-05-29T16:11:45.044Z,17.76
2019-05-29T16:14:15.447Z,17.77
2019-05-29T16:16:45.883Z,17.46
2019-05-29T16:19:16.326Z,16.76
2019-05-29T16:21:46.843Z,16.35
2019-05-29T16:24:17.130Z,16.47
2019-05-29T16:26:48.418Z,16.73
2019-05-29T16:29:19.703Z,16.72
2019-05-29T16:31:50.138Z,16.31
2019-05-29T16:34:21.954Z,16.16
2019-05-29T16:36:55.218Z,16.16
2019-05-29T16:39:25.626Z,16.15
2019-05-29T16:41:56.277Z,15.95
2019-05-29T16:44:29.479Z,15.87
2019-05-29T16:46:58.991Z,15.88
2019-05-29T16:49:29.264Z,15.42
2019-05-29T16:52:01.249Z,15.35
2019-05-29T16:54:31.952Z,15.39
2019-05-29T16:57:02.199Z,15.37
2019-05-29T16:59:32.793Z,15.34
2019-05-29T17:02:04.502Z,15.18
2019-05-29T17:04:37.759Z,15.01
2019-05-29T17:07:10.212Z,14.87
2019-05-29T17:09:40.474Z,14.82
2019-05-29T17:12:14.729Z,14.78
2019-05-29T17:14:49.424Z,14.79
2019-05-29T17:17:22.700Z,14.73
2019-05-29T17:19:53.163Z,14.44
2019-05-29T17:22:24.830Z,14.33
2019-05-29T17:24:56.505Z,14.23
2019-05-29T17:27:27.435Z,14.23
2019-05-29T17:29:59.959Z,14.07
2019-05-29T17:32:30.388Z,13.97
2019-05-29T17:35:03.584Z,13.88
2019-05-29T17:37:33.896Z,13.76
2019-05-29T17:40:09.965Z,13.71
2019-05-29T17:42:40.393Z,13.70
2019-05-29T17:45:12.481Z,13.56
2019-05-29T17:47:46.008Z,13.56
2019-05-29T17:50:19.130Z,13.59
2019-05-29T17:52:49.587Z,13.53
2019-05-29T17:55:21.812Z,13.47
2019-05-29T17:57:52.004Z,13.40
2019-05-29T18:00:24.768Z,13.35
2019-05-29T18:02:56.818Z,13.28
2019-05-29T18:05:28.012Z,13.23
2019-05-29T18:08:01.716Z,13.10
2019-05-29T18:10:30.930Z,13.14
2019-05-29T18:13:01.254Z,13.00
2019-05-29T18:15:31.618Z,12.92
2019-05-29T18:18:01.978Z,12.93
2019-05-29T18:20:32.509Z,12.84
2019-05-29T18:23:02.964Z,12.87
2019-05-29T18:25:33.445Z,12.76
2019-05-29T18:28:04.716Z,12.67
2019-05-29T18:30:36.370Z,12.67
2019-05-29T18:33:08.347Z,12.64
2019-05-29T18:35:41.771Z,12.54
2019-05-29T18:38:12.136Z,12.39
2019-05-29T18:40:42.484Z,12.35
2019-05-29T18:43:12.882Z,12.29
2019-05-29T18:45:44.000Z,12.20
2019-05-29T18:48:14.313Z,12.09
2019-05-29T18:50:45.098Z,12.12
2019-05-29T18:53:20.638Z,12.13
2019-05-29T18:55:53.278Z,12.00
2019-05-29T18:58:26.458Z,11.82
2019-05-29T19:00:57.113Z,11.83
2019-05-29T19:03:27.604Z,11.84
2019-05-29T19:05:58.060Z,11.82
2019-05-29T19:08:32.953Z,11.76
2019-05-29T19:11:03.409Z,11.59
2019-05-29T19:13:33.655Z,11.57
2019-05-29T19:16:07.808Z,11.55
2019-05-29T19:18:41.739Z,11.54
2019-05-29T19:21:14.689Z,11.43
2019-05-29T19:23:45.010Z,11.29
2019-05-29T19:26:15.346Z,11.15
2019-05-29T19:28:45.705Z,11.12
2019-05-29T19:31:18.875Z,10.97
2019-05-29T19:33:49.214Z,10.95
2019-05-29T19:36:19.470Z,10.97
2019-05-29T19:38:50.685Z,10.83
2019-05-29T19:41:21.089Z,10.59
2019-05-29T19:43:52.381Z,10.51
2019-05-29T19:46:22.754Z,10.42
2019-05-29T19:48:53.106Z,10.51
2019-05-29T19:51:25.139Z,10.44
2019-05-29T19:53:55.612Z,10.28
2019-05-29T19:56:25.922Z,10.05
2019-05-29T19:58:56.214Z,9.97
2019-05-29T20:01:32.855Z,9.71
2019-05-29T20:03:58.547Z,9.63
2019-05-29T20:06:29.150Z,9.57
2019-05-29T20:08:59.490Z,9.37
2019-05-29T20:11:33.528Z,9.31
2019-05-29T20:14:07.388Z,9.26
2019-05-29T20:16:36.323Z,9.21
2019-05-29T20:19:06.625Z,9.13
2019-05-29T20:21:36.932Z,9.18
2019-05-29T20:24:07.211Z,9.09
2019-05-29T20:26:43.593Z,9.05
2019-05-29T20:29:14.806Z,8.90
2019-05-29T20:31:45.103Z,8.84
2019-05-29T20:34:16.045Z,8.63
2019-05-29T20:36:46.637Z,8.46
2019-05-29T20:39:16.960Z,8.24
2019-05-29T20:41:49.751Z,8.15
2019-05-29T20:44:20.047Z,8.10
2019-05-29T20:46:50.341Z,8.11
2019-05-29T20:49:21.026Z,8.00
2019-05-29T20:51:54.102Z,7.98
2019-05-29T20:54:24.767Z,7.91
2019-05-29T20:56:57.357Z,7.84
2019-05-29T20:59:27.649Z,7.78
2019-05-29T21:01:58.024Z,7.62
2019-05-29T21:04:28.912Z,7.46
2019-05-29T21:06:59.213Z,7.51
2019-05-29T21:09:31.018Z,7.52
2019-05-29T21:12:01.301Z,7.28
2019-05-29T21:14:31.607Z,7.25
2019-05-29T21:17:01.992Z,7.20
2019-05-29T21:19:32.353Z,7.27
2019-05-29T21:22:05.868Z,7.48
2019-05-29T21:24:36.438Z,7.44
2019-05-29T21:27:07.517Z,7.31
2019-05-29T21:29:39.547Z,7.40
2019-05-29T21:32:09.960Z,7.46
2019-05-29T21:34:41.912Z,7.33
2019-05-29T21:37:12.312Z,7.28
2019-05-29T21:39:46.530Z,7.27
2019-05-29T21:42:17.078Z,7.17
2019-05-29T21:44:47.890Z,7.15
2019-05-29T21:47:18.520Z,7.06
2019-05-29T21:49:50.588Z,7.07
2019-05-29T21:52:20.881Z,6.98
2019-05-29T21:54:51.776Z,7.11
2019-05-29T21:57:22.254Z,7.02
2019-05-29T21:59:52.563Z,6.87
2019-05-29T22:02:23.128Z,6.87
2019-05-29T22:04:53.374Z,6.67
2019-05-29T22:07:23.777Z,6.81
2019-05-29T22:09:54.499Z,6.76
2019-05-29T22:12:28.381Z,6.72
2019-05-29T22:15:02.843Z,6.89
2019-05-29T22:17:33.047Z,7.01
2019-05-29T22:20:04.349Z,7.02
2019-05-29T22:22:37.385Z,6.96
2019-05-29T22:25:08.137Z,6.78
2019-05-29T22:27:38.881Z,6.68
2019-05-29T22:30:12.576Z,6.58
2019-05-29T22:32:43.451Z,6.49
2019-05-29T22:35:14.753Z,6.50
2019-05-29T22:37:45.907Z,6.36
2019-05-29T22:40:16.231Z,6.27
2019-05-29T22:42:46.611Z,6.13
2019-05-29T22:45:18.648Z,5.97
2019-05-29T22:47:48.927Z,5.87
2019-05-29T22:50:19.216Z,5.85
2019-05-29T22:52:49.523Z,5.77
2019-05-29T22:55:21.847Z,5.67
2019-05-29T22:57:53.881Z,5.56
2019-05-29T23:00:25.145Z,5.43
2019-05-29T23:02:56.127Z,5.29
2019-05-29T23:05:29.932Z,5.10
2019-05-29T23:08:02.743Z,5.03
2019-05-29T23:10:36.006Z,4.93
2019-05-29T23:13:06.420Z,4.92
2019-05-29T23:15:38.178Z,4.78
2019-05-29T23:18:08.867Z,4.78
2019-05-29T23:20:39.627Z,4.76
2019-05-29T23:23:11.863Z,4.69
2019-05-29T23:25:43.281Z,4.78
2019-05-29T23:28:14.489Z,4.89
2019-05-29T23:30:47.628Z,5.02
2019-05-29T23:33:17.941Z,4.87
2019-05-29T23:35:48.219Z,5.03
2019-05-29T23:38:19.624Z,5.06
2019-05-29T23:40:49.963Z,5.07
2019-05-29T23:43:20.232Z,5.09
2019-05-29T23:45:57.634Z,5.03
2019-05-29T23:48:29.891Z,5.27
2019-05-29T23:51:00.245Z,5.15
2019-05-29T23:53:32.886Z,5.12
2019-05-29T23:56:04.004Z,5.23
2019-05-29T23:58:34.348Z,5.00
